This is the latest recevied weather packets stored in our database for station/object SP2NBH-2. If no packets are shown the sender has not sent any weather packets the latest 10 day(s).
| Time | Temp. | Humidity | Pressure | Rain* | Wind** | Luminosity | Snow |
|---|---|---|---|---|---|---|---|
| 1777993388 | 10° C | 76% | 1012.2 hPa | - | - | - | - |
| 1777992488 | 10° C | 76% | 1012.2 hPa | - | - | - | - |
| 1777991588 | 10.56° C | 75% | 1012.1 hPa | - | - | - | - |
| 1777990688 | 10.56° C | 75% | 1012.3 hPa | - | - | - | - |
| 1777989788 | 10° C | 78% | 1012.3 hPa | - | - | - | - |
| 1777988924 | 10° C | 78% | 1012.4 hPa | - | - | - | - |
| 1777988888 | 10° C | 78% | 1012.4 hPa | - | - | - | - |
| 1777987988 | 9.44° C | 78% | 1012.3 hPa | - | - | - | - |
| 1777987088 | 9.44° C | 77% | 1012.5 hPa | - | - | - | - |
| 1777986188 | 10° C | 74% | 1012.8 hPa | - | - | - | - |
| 1777985287 | 10° C | 75% | 1013 hPa | - | - | - | - |
| 1777984387 | 9.44° C | 73% | 1013 hPa | - | - | - | - |
| 1777983568 | 10° C | 72% | 1012.9 hPa | - | - | - | - |
| 1777983487 | 10° C | 72% | 1012.9 hPa | - | - | - | - |
| 1777982587 | 10.56° C | 71% | 1012.6 hPa | - | - | - | - |
| 1777981687 | 11.11° C | 68% | 1012.3 hPa | - | - | - | - |
| 1777980787 | 12.22° C | 63% | 1012.2 hPa | - | - | - | - |
| 1777979887 | 13.33° C | 59% | 1012.1 hPa | - | - | - | - |
| 1777978987 | 15° C | 51% | 1011.8 hPa | - | - | - | - |
| 1777978087 | 16.11° C | 47% | 1011.7 hPa | - | - | - | - |
| 1777976384 | 20° C | 32% | 1011.9 hPa | - | - | - | - |
| 1777975484 | 19.44° C | 34% | 1012 hPa | - | - | - | - |
| 1777974584 | 18.89° C | 36% | 1012.1 hPa | - | - | - | - |
| 1777973683 | 21.67° C | 28% | 1012.1 hPa | - | - | - | - |
| 1777972816 | 20.56° C | 31% | 1012 hPa | - | - | - | - |
* Rain since midnight (hover to see other rain measurements)
** Current wind speed in m/s (hover to see current wind gust speed)